Terminal Aerodrome Forecast
Issued by NWS Bismarck, ND

Home | Current Version | Previous Version | Graphics & Text | Print | Product List | Glossary On
Versions: 1 2 3 4 5 6 7 8 9 10 11 12 13 14 15 16
000
FTUS43 KBIS 211100
TAFISN
TAF
KISN 211135Z 2112/2212 04005KT P6SM SKC
     FM211500 04009KT P6SM BKN100
      TEMPO 2118/2122 -TSRA OVC050CB
     FM212200 36014KT P6SM -SHRA OVC050
     FM220000 01015KT P6SM BKN050=

USA.gov is the U.S. government's official web portal to all federal, state and local government web resources and services.